sensor_id;sensor_type;location;lat;lon;timestamp;temperature;humidity
20418;DHT22;10368;51.436;6.774;2022-12-07T00:01:43;5.40;99.90
20418;DHT22;10368;51.436;6.774;2022-12-07T00:04:13;5.40;99.90
20418;DHT22;10368;51.436;6.774;2022-12-07T00:06:42;5.40;99.90
20418;DHT22;10368;51.436;6.774;2022-12-07T00:09:12;5.40;99.90
20418;DHT22;10368;51.436;6.774;2022-12-07T00:11:40;5.40;99.90
20418;DHT22;10368;51.436;6.774;2022-12-07T00:14:11;5.40;99.90
20418;DHT22;10368;51.436;6.774;2022-12-07T00:16:38;5.40;99.90
20418;DHT22;10368;51.436;6.774;2022-12-07T00:19:05;5.40;99.90
20418;DHT22;10368;51.436;6.774;2022-12-07T00:21:34;5.40;99.90
20418;DHT22;10368;51.436;6.774;2022-12-07T00:24:03;5.40;99.90
20418;DHT22;10368;51.436;6.774;2022-12-07T00:26:35;5.40;99.90
20418;DHT22;10368;51.436;6.774;2022-12-07T00:29:09;5.40;99.90
20418;DHT22;10368;51.436;6.774;2022-12-07T00:31:38;5.40;99.90
20418;DHT22;10368;51.436;6.774;2022-12-07T00:34:09;5.30;99.90
20418;DHT22;10368;51.436;6.774;2022-12-07T00:36:38;5.30;99.90
20418;DHT22;10368;51.436;6.774;2022-12-07T00:39:04;5.30;99.90
20418;DHT22;10368;51.436;6.774;2022-12-07T00:41:31;5.40;99.90
20418;DHT22;10368;51.436;6.774;2022-12-07T00:43:58;5.40;99.90
20418;DHT22;10368;51.436;6.774;2022-12-07T00:46:26;5.40;99.90
20418;DHT22;10368;51.436;6.774;2022-12-07T00:48:53;5.40;99.90
20418;DHT22;10368;51.436;6.774;2022-12-07T00:51:22;5.30;99.90
20418;DHT22;10368;51.436;6.774;2022-12-07T00:53:49;5.40;99.90
20418;DHT22;10368;51.436;6.774;2022-12-07T00:56:25;5.40;99.90
20418;DHT22;10368;51.436;6.774;2022-12-07T00:58:53;5.40;99.90
20418;DHT22;10368;51.436;6.774;2022-12-07T01:01:21;5.30;99.90
20418;DHT22;10368;51.436;6.774;2022-12-07T01:03:49;5.40;99.90
20418;DHT22;10368;51.436;6.774;2022-12-07T01:06:17;5.30;99.90
20418;DHT22;10368;51.436;6.774;2022-12-07T01:08:45;5.30;99.90
20418;DHT22;10368;51.436;6.774;2022-12-07T01:11:15;5.30;99.90
20418;DHT22;10368;51.436;6.774;2022-12-07T01:13:43;5.30;99.90
20418;DHT22;10368;51.436;6.774;2022-12-07T01:16:12;5.30;99.90
20418;DHT22;10368;51.436;6.774;2022-12-07T01:18:40;5.30;99.90
20418;DHT22;10368;51.436;6.774;2022-12-07T01:21:11;5.30;99.90
20418;DHT22;10368;51.436;6.774;2022-12-07T01:23:38;5.30;99.90
20418;DHT22;10368;51.436;6.774;2022-12-07T01:26:12;5.30;99.90
20418;DHT22;10368;51.436;6.774;2022-12-07T01:28:39;5.30;99.90
20418;DHT22;10368;51.436;6.774;2022-12-07T01:31:07;5.30;99.90
20418;DHT22;10368;51.436;6.774;2022-12-07T01:33:36;5.30;99.90
20418;DHT22;10368;51.436;6.774;2022-12-07T01:38:33;5.30;99.90
20418;DHT22;10368;51.436;6.774;2022-12-07T01:41:01;5.20;99.90
20418;DHT22;10368;51.436;6.774;2022-12-07T01:43:30;5.20;99.90
20418;DHT22;10368;51.436;6.774;2022-12-07T01:45:58;5.30;99.90
20418;DHT22;10368;51.436;6.774;2022-12-07T01:48:38;5.30;99.90
20418;DHT22;10368;51.436;6.774;2022-12-07T01:51:08;5.30;99.90
20418;DHT22;10368;51.436;6.774;2022-12-07T01:53:41;5.20;99.90
20418;DHT22;10368;51.436;6.774;2022-12-07T01:56:12;5.20;99.90
20418;DHT22;10368;51.436;6.774;2022-12-07T01:58:40;5.20;99.90
20418;DHT22;10368;51.436;6.774;2022-12-07T02:01:07;5.20;99.90
20418;DHT22;10368;51.436;6.774;2022-12-07T02:03:40;5.20;99.90
20418;DHT22;10368;51.436;6.774;2022-12-07T02:06:08;5.20;99.90
20418;DHT22;10368;51.436;6.774;2022-12-07T02:08:35;5.20;99.90
20418;DHT22;10368;51.436;6.774;2022-12-07T02:11:04;5.10;99.90
20418;DHT22;10368;51.436;6.774;2022-12-07T02:13:34;5.10;99.90
20418;DHT22;10368;51.436;6.774;2022-12-07T02:29:24;5.00;99.90
20418;DHT22;10368;51.436;6.774;2022-12-07T02:32:06;5.00;99.90
20418;DHT22;10368;51.436;6.774;2022-12-07T02:37:26;5.00;99.90
20418;DHT22;10368;51.436;6.774;2022-12-07T02:40:23;4.90;99.90
20418;DHT22;10368;51.436;6.774;2022-12-07T02:42:57;4.90;99.90
20418;DHT22;10368;51.436;6.774;2022-12-07T02:45:27;4.90;99.90
20418;DHT22;10368;51.436;6.774;2022-12-07T02:47:58;5.00;99.90
20418;DHT22;10368;51.436;6.774;2022-12-07T02:50:26;4.90;99.90
20418;DHT22;10368;51.436;6.774;2022-12-07T02:52:53;4.90;99.90
20418;DHT22;10368;51.436;6.774;2022-12-07T02:55:25;4.80;99.90
20418;DHT22;10368;51.436;6.774;2022-12-07T02:57:55;4.90;99.90
20418;DHT22;10368;51.436;6.774;2022-12-07T03:00:24;4.90;99.90
20418;DHT22;10368;51.436;6.774;2022-12-07T03:02:58;4.90;99.90
20418;DHT22;10368;51.436;6.774;2022-12-07T03:18:45;4.70;99.90
20418;DHT22;10368;51.436;6.774;2022-12-07T03:21:20;4.60;99.90
20418;DHT22;10368;51.436;6.774;2022-12-07T03:23:52;4.60;99.90
20418;DHT22;10368;51.436;6.774;2022-12-07T03:26:23;4.60;99.90
20418;DHT22;10368;51.436;6.774;2022-12-07T03:28:54;4.60;99.90
20418;DHT22;10368;51.436;6.774;2022-12-07T03:31:25;4.60;99.90
20418;DHT22;10368;51.436;6.774;2022-12-07T03:34:28;4.60;99.90
20418;DHT22;10368;51.436;6.774;2022-12-07T03:37:14;4.50;99.90
20418;DHT22;10368;51.436;6.774;2022-12-07T03:39:54;4.50;99.90
20418;DHT22;10368;51.436;6.774;2022-12-07T03:42:25;4.50;99.90
20418;DHT22;10368;51.436;6.774;2022-12-07T03:44:51;4.50;99.90
20418;DHT22;10368;51.436;6.774;2022-12-07T03:47:41;4.40;99.90
20418;DHT22;10368;51.436;6.774;2022-12-07T03:50:25;4.50;99.90
20418;DHT22;10368;51.436;6.774;2022-12-07T03:53:03;4.50;99.90
20418;DHT22;10368;51.436;6.774;2022-12-07T03:55:35;4.50;99.90
20418;DHT22;10368;51.436;6.774;2022-12-07T03:58:06;4.60;99.90
20418;DHT22;10368;51.436;6.774;2022-12-07T04:00:35;4.60;99.90
20418;DHT22;10368;51.436;6.774;2022-12-07T04:03:02;4.60;99.90
20418;DHT22;10368;51.436;6.774;2022-12-07T04:05:29;4.60;99.90
20418;DHT22;10368;51.436;6.774;2022-12-07T04:07:56;4.60;99.90
20418;DHT22;10368;51.436;6.774;2022-12-07T04:10:23;4.60;99.90
20418;DHT22;10368;51.436;6.774;2022-12-07T04:12:50;4.50;99.90
20418;DHT22;10368;51.436;6.774;2022-12-07T04:15:16;4.50;99.90
20418;DHT22;10368;51.436;6.774;2022-12-07T04:17:43;4.50;99.90
20418;DHT22;10368;51.436;6.774;2022-12-07T04:20:11;4.50;99.90
20418;DHT22;10368;51.436;6.774;2022-12-07T04:22:38;4.50;99.90
20418;DHT22;10368;51.436;6.774;2022-12-07T04:25:05;4.60;99.90
20418;DHT22;10368;51.436;6.774;2022-12-07T04:27:32;4.50;99.90
20418;DHT22;10368;51.436;6.774;2022-12-07T04:29:59;4.50;99.90
20418;DHT22;10368;51.436;6.774;2022-12-07T04:32:27;4.50;99.90
20418;DHT22;10368;51.436;6.774;2022-12-07T04:34:53;4.50;99.90
20418;DHT22;10368;51.436;6.774;2022-12-07T04:37:22;4.50;99.90
20418;DHT22;10368;51.436;6.774;2022-12-07T04:39:49;4.40;99.90
20418;DHT22;10368;51.436;6.774;2022-12-07T04:42:16;4.30;99.90
20418;DHT22;10368;51.436;6.774;2022-12-07T04:44:42;4.30;99.90
20418;DHT22;10368;51.436;6.774;2022-12-07T04:47:09;4.30;99.90
20418;DHT22;10368;51.436;6.774;2022-12-07T04:49:37;4.40;99.90
20418;DHT22;10368;51.436;6.774;2022-12-07T04:52:04;4.30;99.90
20418;DHT22;10368;51.436;6.774;2022-12-07T04:54:30;4.30;99.90
20418;DHT22;10368;51.436;6.774;2022-12-07T04:56:57;4.30;99.90
20418;DHT22;10368;51.436;6.774;2022-12-07T04:59:24;4.30;99.90
20418;DHT22;10368;51.436;6.774;2022-12-07T05:01:51;4.40;99.90
20418;DHT22;10368;51.436;6.774;2022-12-07T05:04:18;4.40;99.90
20418;DHT22;10368;51.436;6.774;2022-12-07T05:06:45;4.30;99.90
20418;DHT22;10368;51.436;6.774;2022-12-07T05:09:12;4.30;99.90
20418;DHT22;10368;51.436;6.774;2022-12-07T05:11:39;4.40;99.90
20418;DHT22;10368;51.436;6.774;2022-12-07T05:16:33;4.40;99.90
20418;DHT22;10368;51.436;6.774;2022-12-07T05:19:00;4.40;99.90
20418;DHT22;10368;51.436;6.774;2022-12-07T05:21:27;4.40;99.90
20418;DHT22;10368;51.436;6.774;2022-12-07T05:23:54;4.30;99.90
20418;DHT22;10368;51.436;6.774;2022-12-07T05:26:21;4.40;99.90
20418;DHT22;10368;51.436;6.774;2022-12-07T05:28:52;4.40;99.90
20418;DHT22;10368;51.436;6.774;2022-12-07T05:31:20;4.40;99.90
20418;DHT22;10368;51.436;6.774;2022-12-07T05:33:47;4.40;99.90
20418;DHT22;10368;51.436;6.774;2022-12-07T05:36:14;4.40;99.90
20418;DHT22;10368;51.436;6.774;2022-12-07T05:38:41;4.40;99.90
20418;DHT22;10368;51.436;6.774;2022-12-07T05:41:09;4.40;99.90
20418;DHT22;10368;51.436;6.774;2022-12-07T05:43:58;4.40;99.90
20418;DHT22;10368;51.436;6.774;2022-12-07T05:46:25;4.40;99.90
20418;DHT22;10368;51.436;6.774;2022-12-07T05:48:52;4.40;99.90
20418;DHT22;10368;51.436;6.774;2022-12-07T05:51:19;4.40;99.90
20418;DHT22;10368;51.436;6.774;2022-12-07T05:53:47;4.40;99.90
20418;DHT22;10368;51.436;6.774;2022-12-07T05:56:14;4.40;99.90
20418;DHT22;10368;51.436;6.774;2022-12-07T05:58:41;4.50;99.90
20418;DHT22;10368;51.436;6.774;2022-12-07T06:01:26;4.50;99.90
20418;DHT22;10368;51.436;6.774;2022-12-07T06:03:53;4.50;99.90
20418;DHT22;10368;51.436;6.774;2022-12-07T06:06:20;4.50;99.90
20418;DHT22;10368;51.436;6.774;2022-12-07T06:08:47;4.50;99.90
20418;DHT22;10368;51.436;6.774;2022-12-07T06:11:14;4.50;99.90
20418;DHT22;10368;51.436;6.774;2022-12-07T06:13:59;4.60;99.90
20418;DHT22;10368;51.436;6.774;2022-12-07T06:16:26;4.60;99.90
20418;DHT22;10368;51.436;6.774;2022-12-07T06:18:53;4.50;99.90
20418;DHT22;10368;51.436;6.774;2022-12-07T06:21:20;4.50;99.90
20418;DHT22;10368;51.436;6.774;2022-12-07T06:23:47;4.40;99.90
20418;DHT22;10368;51.436;6.774;2022-12-07T06:26:14;4.40;99.90
20418;DHT22;10368;51.436;6.774;2022-12-07T06:28:41;4.40;99.90
20418;DHT22;10368;51.436;6.774;2022-12-07T06:31:08;4.40;99.90
20418;DHT22;10368;51.436;6.774;2022-12-07T06:33:40;4.40;99.90
20418;DHT22;10368;51.436;6.774;2022-12-07T06:36:08;4.50;99.90
20418;DHT22;10368;51.436;6.774;2022-12-07T06:38:35;4.50;99.90
20418;DHT22;10368;51.436;6.774;2022-12-07T06:41:02;4.40;99.90
20418;DHT22;10368;51.436;6.774;2022-12-07T06:43:29;4.40;99.90
20418;DHT22;10368;51.436;6.774;2022-12-07T06:45:56;4.30;99.90
20418;DHT22;10368;51.436;6.774;2022-12-07T06:48:23;4.40;99.90
20418;DHT22;10368;51.436;6.774;2022-12-07T06:50:50;4.40;99.90
20418;DHT22;10368;51.436;6.774;2022-12-07T06:53:21;4.50;99.90
20418;DHT22;10368;51.436;6.774;2022-12-07T06:55:48;4.40;99.90
20418;DHT22;10368;51.436;6.774;2022-12-07T06:58:15;4.40;99.90
20418;DHT22;10368;51.436;6.774;2022-12-07T07:00:42;4.40;99.90
20418;DHT22;10368;51.436;6.774;2022-12-07T07:03:09;4.30;99.90
20418;DHT22;10368;51.436;6.774;2022-12-07T07:05:36;4.40;99.90
20418;DHT22;10368;51.436;6.774;2022-12-07T07:08:03;4.40;99.90
20418;DHT22;10368;51.436;6.774;2022-12-07T07:10:48;4.40;99.90
20418;DHT22;10368;51.436;6.774;2022-12-07T07:13:14;4.30;99.90
20418;DHT22;10368;51.436;6.774;2022-12-07T07:15:41;4.40;99.90
20418;DHT22;10368;51.436;6.774;2022-12-07T07:18:08;4.30;99.90
20418;DHT22;10368;51.436;6.774;2022-12-07T07:20:35;4.40;99.90
20418;DHT22;10368;51.436;6.774;2022-12-07T07:23:02;4.40;99.90
20418;DHT22;10368;51.436;6.774;2022-12-07T07:25:29;4.30;99.90
20418;DHT22;10368;51.436;6.774;2022-12-07T07:27:56;4.30;99.90
20418;DHT22;10368;51.436;6.774;2022-12-07T07:30:23;4.30;99.90
20418;DHT22;10368;51.436;6.774;2022-12-07T07:32:50;4.40;99.90
20418;DHT22;10368;51.436;6.774;2022-12-07T07:35:17;4.50;99.90
20418;DHT22;10368;51.436;6.774;2022-12-07T07:37:44;4.40;99.90
20418;DHT22;10368;51.436;6.774;2022-12-07T07:40:11;4.30;99.90
20418;DHT22;10368;51.436;6.774;2022-12-07T07:42:38;4.30;99.90
20418;DHT22;10368;51.436;6.774;2022-12-07T07:45:06;4.30;99.90
20418;DHT22;10368;51.436;6.774;2022-12-07T07:47:33;4.30;99.90
20418;DHT22;10368;51.436;6.774;2022-12-07T07:50:00;4.30;99.90
20418;DHT22;10368;51.436;6.774;2022-12-07T07:52:27;4.20;99.90
20418;DHT22;10368;51.436;6.774;2022-12-07T07:54:54;4.20;99.90
20418;DHT22;10368;51.436;6.774;2022-12-07T07:57:21;4.20;99.90
20418;DHT22;10368;51.436;6.774;2022-12-07T07:59:48;4.20;99.90
20418;DHT22;10368;51.436;6.774;2022-12-07T08:02:17;4.20;99.90
20418;DHT22;10368;51.436;6.774;2022-12-07T08:04:45;4.20;99.90
20418;DHT22;10368;51.436;6.774;2022-12-07T08:07:13;4.30;99.90
20418;DHT22;10368;51.436;6.774;2022-12-07T08:09:41;4.30;99.90
20418;DHT22;10368;51.436;6.774;2022-12-07T08:12:08;4.20;99.90
20418;DHT22;10368;51.436;6.774;2022-12-07T08:14:35;4.20;99.90
20418;DHT22;10368;51.436;6.774;2022-12-07T08:17:02;4.20;99.90
20418;DHT22;10368;51.436;6.774;2022-12-07T08:19:29;4.00;99.90
20418;DHT22;10368;51.436;6.774;2022-12-07T08:21:56;4.00;99.90
20418;DHT22;10368;51.436;6.774;2022-12-07T08:24:23;4.00;99.90
20418;DHT22;10368;51.436;6.774;2022-12-07T08:26:51;4.00;99.90
20418;DHT22;10368;51.436;6.774;2022-12-07T08:29:18;4.00;99.90
20418;DHT22;10368;51.436;6.774;2022-12-07T08:31:46;4.00;99.90
20418;DHT22;10368;51.436;6.774;2022-12-07T08:34:13;3.90;99.90
20418;DHT22;10368;51.436;6.774;2022-12-07T08:36:40;3.90;99.90
20418;DHT22;10368;51.436;6.774;2022-12-07T08:39:07;3.90;99.90
20418;DHT22;10368;51.436;6.774;2022-12-07T08:41:54;3.90;99.90
20418;DHT22;10368;51.436;6.774;2022-12-07T08:44:21;3.90;99.90
20418;DHT22;10368;51.436;6.774;2022-12-07T08:46:56;3.90;99.90
20418;DHT22;10368;51.436;6.774;2022-12-07T08:49:30;4.00;99.90
20418;DHT22;10368;51.436;6.774;2022-12-07T08:51:58;4.00;99.90
20418;DHT22;10368;51.436;6.774;2022-12-07T08:54:25;4.00;99.90
20418;DHT22;10368;51.436;6.774;2022-12-07T08:56:55;4.10;99.90
20418;DHT22;10368;51.436;6.774;2022-12-07T08:59:26;4.00;99.90
20418;DHT22;10368;51.436;6.774;2022-12-07T09:01:54;4.10;99.90
20418;DHT22;10368;51.436;6.774;2022-12-07T09:04:21;4.10;99.90
20418;DHT22;10368;51.436;6.774;2022-12-07T09:06:48;4.00;99.90
20418;DHT22;10368;51.436;6.774;2022-12-07T09:09:15;4.20;99.90
20418;DHT22;10368;51.436;6.774;2022-12-07T09:11:42;4.20;99.90
20418;DHT22;10368;51.436;6.774;2022-12-07T09:14:09;4.20;99.90
20418;DHT22;10368;51.436;6.774;2022-12-07T09:16:36;4.30;99.90
20418;DHT22;10368;51.436;6.774;2022-12-07T09:19:03;4.40;99.90
20418;DHT22;10368;51.436;6.774;2022-12-07T09:21:30;4.50;99.90
20418;DHT22;10368;51.436;6.774;2022-12-07T09:23:57;4.50;99.90
20418;DHT22;10368;51.436;6.774;2022-12-07T09:26:24;4.50;99.90
20418;DHT22;10368;51.436;6.774;2022-12-07T09:28:51;4.60;99.90
20418;DHT22;10368;51.436;6.774;2022-12-07T09:31:17;4.70;99.90
20418;DHT22;10368;51.436;6.774;2022-12-07T09:33:58;4.80;99.90
20418;DHT22;10368;51.436;6.774;2022-12-07T09:36:26;4.90;99.90
20418;DHT22;10368;51.436;6.774;2022-12-07T09:38:53;5.00;99.90
20418;DHT22;10368;51.436;6.774;2022-12-07T09:41:21;5.00;99.90
20418;DHT22;10368;51.436;6.774;2022-12-07T09:43:49;5.00;99.90
20418;DHT22;10368;51.436;6.774;2022-12-07T09:46:18;5.00;99.90
20418;DHT22;10368;51.436;6.774;2022-12-07T09:48:47;4.90;99.90
20418;DHT22;10368;51.436;6.774;2022-12-07T09:51:22;4.90;99.90
20418;DHT22;10368;51.436;6.774;2022-12-07T09:53:54;4.90;99.90
20418;DHT22;10368;51.436;6.774;2022-12-07T09:56:23;4.90;99.90
20418;DHT22;10368;51.436;6.774;2022-12-07T09:58:57;4.90;99.90
20418;DHT22;10368;51.436;6.774;2022-12-07T10:01:29;5.00;99.90
20418;DHT22;10368;51.436;6.774;2022-12-07T10:04:17;5.00;99.90
20418;DHT22;10368;51.436;6.774;2022-12-07T10:06:45;5.00;99.90
20418;DHT22;10368;51.436;6.774;2022-12-07T10:09:14;5.10;99.90
20418;DHT22;10368;51.436;6.774;2022-12-07T10:12:05;5.10;99.90
20418;DHT22;10368;51.436;6.774;2022-12-07T10:14:36;5.10;99.90
20418;DHT22;10368;51.436;6.774;2022-12-07T10:17:38;5.20;99.90
20418;DHT22;10368;51.436;6.774;2022-12-07T10:20:26;5.30;99.90
20418;DHT22;10368;51.436;6.774;2022-12-07T10:23:00;5.40;99.90
20418;DHT22;10368;51.436;6.774;2022-12-07T10:25:36;5.60;99.90
20418;DHT22;10368;51.436;6.774;2022-12-07T10:30:59;5.90;99.90
20418;DHT22;10368;51.436;6.774;2022-12-07T10:33:32;5.90;99.90
20418;DHT22;10368;51.436;6.774;2022-12-07T10:36:01;5.90;99.90
20418;DHT22;10368;51.436;6.774;2022-12-07T10:38:46;5.90;99.90
20418;DHT22;10368;51.436;6.774;2022-12-07T10:41:13;5.80;99.90
20418;DHT22;10368;51.436;6.774;2022-12-07T10:43:52;6.00;99.90
20418;DHT22;10368;51.436;6.774;2022-12-07T10:51:56;6.10;99.90
20418;DHT22;10368;51.436;6.774;2022-12-07T10:54:48;6.20;99.90
20418;DHT22;10368;51.436;6.774;2022-12-07T11:02:53;6.10;99.90
20418;DHT22;10368;51.436;6.774;2022-12-07T11:05:46;6.20;99.90
20418;DHT22;10368;51.436;6.774;2022-12-07T11:13:47;6.20;99.90
20418;DHT22;10368;51.436;6.774;2022-12-07T11:16:21;6.20;99.90
20418;DHT22;10368;51.436;6.774;2022-12-07T11:22:04;6.10;99.90
20418;DHT22;10368;51.436;6.774;2022-12-07T11:27:41;6.30;99.90
20418;DHT22;10368;51.436;6.774;2022-12-07T11:30:17;6.20;99.90
20418;DHT22;10368;51.436;6.774;2022-12-07T11:38:21;6.30;99.90
20418;DHT22;10368;51.436;6.774;2022-12-07T11:41:00;6.40;99.90
20418;DHT22;10368;51.436;6.774;2022-12-07T11:43:54;6.50;99.90
20418;DHT22;10368;51.436;6.774;2022-12-07T11:52:06;6.70;99.90
20418;DHT22;10368;51.436;6.774;2022-12-07T11:54:42;6.70;99.90
20418;DHT22;10368;51.436;6.774;2022-12-07T12:00:06;6.40;99.90
20418;DHT22;10368;51.436;6.774;2022-12-07T12:03:09;6.50;99.90
20418;DHT22;10368;51.436;6.774;2022-12-07T12:05:39;6.50;99.90
20418;DHT22;10368;51.436;6.774;2022-12-07T12:08:18;6.40;99.90
20418;DHT22;10368;51.436;6.774;2022-12-07T12:25:34;6.50;99.90
20418;DHT22;10368;51.436;6.774;2022-12-07T12:31:06;6.40;99.90
20418;DHT22;10368;51.436;6.774;2022-12-07T12:33:35;6.50;99.90
20418;DHT22;10368;51.436;6.774;2022-12-07T12:47:00;6.50;99.90
20418;DHT22;10368;51.436;6.774;2022-12-07T12:49:31;6.40;99.90
20418;DHT22;10368;51.436;6.774;2022-12-07T12:55:14;6.50;99.90
20418;DHT22;10368;51.436;6.774;2022-12-07T12:58:21;6.50;99.90
20418;DHT22;10368;51.436;6.774;2022-12-07T13:00:34;6.40;99.90
20418;DHT22;10368;51.436;6.774;2022-12-07T13:03:02;6.50;99.90
20418;DHT22;10368;51.436;6.774;2022-12-07T13:05:35;6.30;99.90
20418;DHT22;10368;51.436;6.774;2022-12-07T13:08:17;6.30;99.90
20418;DHT22;10368;51.436;6.774;2022-12-07T13:10:47;6.30;99.90
20418;DHT22;10368;51.436;6.774;2022-12-07T13:31:49;6.60;99.90
20418;DHT22;10368;51.436;6.774;2022-12-07T13:34:40;6.50;99.90
20418;DHT22;10368;51.436;6.774;2022-12-07T13:37:15;6.50;99.90
20418;DHT22;10368;51.436;6.774;2022-12-07T13:39:57;6.40;99.90
20418;DHT22;10368;51.436;6.774;2022-12-07T13:42:26;6.50;99.90
20418;DHT22;10368;51.436;6.774;2022-12-07T13:44:56;6.50;99.90
20418;DHT22;10368;51.436;6.774;2022-12-07T13:47:43;6.50;99.90
20418;DHT22;10368;51.436;6.774;2022-12-07T13:50:29;6.50;99.90
20418;DHT22;10368;51.436;6.774;2022-12-07T13:53:01;6.50;99.90
20418;DHT22;10368;51.436;6.774;2022-12-07T13:55:29;6.50;99.90
20418;DHT22;10368;51.436;6.774;2022-12-07T13:57:56;6.50;99.90
20418;DHT22;10368;51.436;6.774;2022-12-07T14:00:25;6.50;99.90
20418;DHT22;10368;51.436;6.774;2022-12-07T14:03:00;6.50;99.90
20418;DHT22;10368;51.436;6.774;2022-12-07T14:05:35;6.50;99.90
20418;DHT22;10368;51.436;6.774;2022-12-07T14:10:38;6.50;99.90
20418;DHT22;10368;51.436;6.774;2022-12-07T14:16:35;6.50;99.90
20418;DHT22;10368;51.436;6.774;2022-12-07T14:19:40;6.40;99.90
20418;DHT22;10368;51.436;6.774;2022-12-07T14:25:20;6.40;99.90
20418;DHT22;10368;51.436;6.774;2022-12-07T14:27:57;6.40;99.90
20418;DHT22;10368;51.436;6.774;2022-12-07T14:30:30;6.30;99.90
20418;DHT22;10368;51.436;6.774;2022-12-07T14:33:05;6.30;99.90
20418;DHT22;10368;51.436;6.774;2022-12-07T14:35:32;6.30;99.90
20418;DHT22;10368;51.436;6.774;2022-12-07T14:37:59;6.30;99.90
20418;DHT22;10368;51.436;6.774;2022-12-07T14:40:28;6.20;99.90
20418;DHT22;10368;51.436;6.774;2022-12-07T14:43:02;6.20;99.90
20418;DHT22;10368;51.436;6.774;2022-12-07T14:45:30;6.20;99.90
20418;DHT22;10368;51.436;6.774;2022-12-07T14:47:57;6.20;99.90
20418;DHT22;10368;51.436;6.774;2022-12-07T14:50:47;6.20;99.90
20418;DHT22;10368;51.436;6.774;2022-12-07T14:53:40;6.20;99.90
20418;DHT22;10368;51.436;6.774;2022-12-07T14:56:08;6.10;99.90
20418;DHT22;10368;51.436;6.774;2022-12-07T14:58:35;6.10;99.90
20418;DHT22;10368;51.436;6.774;2022-12-07T15:01:02;6.00;99.90
20418;DHT22;10368;51.436;6.774;2022-12-07T15:03:29;6.00;99.90
20418;DHT22;10368;51.436;6.774;2022-12-07T15:05:57;5.90;99.90
20418;DHT22;10368;51.436;6.774;2022-12-07T15:08:24;5.90;99.90
20418;DHT22;10368;51.436;6.774;2022-12-07T15:10:54;5.90;99.90
20418;DHT22;10368;51.436;6.774;2022-12-07T15:13:24;5.90;99.90
20418;DHT22;10368;51.436;6.774;2022-12-07T15:16:13;5.80;99.90
20418;DHT22;10368;51.436;6.774;2022-12-07T15:18:43;5.80;99.90
20418;DHT22;10368;51.436;6.774;2022-12-07T15:21:29;5.80;99.90
20418;DHT22;10368;51.436;6.774;2022-12-07T15:23:56;5.80;99.90
20418;DHT22;10368;51.436;6.774;2022-12-07T15:26:24;5.70;99.90
20418;DHT22;10368;51.436;6.774;2022-12-07T15:28:53;5.80;99.90
20418;DHT22;10368;51.436;6.774;2022-12-07T15:31:20;5.80;99.90
20418;DHT22;10368;51.436;6.774;2022-12-07T15:34:08;5.70;99.90
20418;DHT22;10368;51.436;6.774;2022-12-07T15:36:35;5.60;99.90
20418;DHT22;10368;51.436;6.774;2022-12-07T15:39:02;5.70;99.90
20418;DHT22;10368;51.436;6.774;2022-12-07T15:41:45;5.60;99.90
20418;DHT22;10368;51.436;6.774;2022-12-07T15:44:13;5.60;99.90
20418;DHT22;10368;51.436;6.774;2022-12-07T15:46:59;5.60;99.90
20418;DHT22;10368;51.436;6.774;2022-12-07T15:49:27;5.60;99.90
20418;DHT22;10368;51.436;6.774;2022-12-07T15:51:54;5.60;99.90
20418;DHT22;10368;51.436;6.774;2022-12-07T15:54:24;5.60;99.90
20418;DHT22;10368;51.436;6.774;2022-12-07T15:56:52;5.60;99.90
20418;DHT22;10368;51.436;6.774;2022-12-07T15:59:19;5.70;99.90
20418;DHT22;10368;51.436;6.774;2022-12-07T16:01:46;5.60;99.90
20418;DHT22;10368;51.436;6.774;2022-12-07T16:04:14;5.60;99.90
20418;DHT22;10368;51.436;6.774;2022-12-07T16:06:41;5.60;99.90
20418;DHT22;10368;51.436;6.774;2022-12-07T16:09:08;5.60;99.90
20418;DHT22;10368;51.436;6.774;2022-12-07T16:11:35;5.60;99.90
20418;DHT22;10368;51.436;6.774;2022-12-07T16:14:02;5.60;99.90
20418;DHT22;10368;51.436;6.774;2022-12-07T16:16:29;5.70;99.90
20418;DHT22;10368;51.436;6.774;2022-12-07T16:18:57;5.60;99.90
20418;DHT22;10368;51.436;6.774;2022-12-07T16:21:24;5.60;99.90
20418;DHT22;10368;51.436;6.774;2022-12-07T16:23:52;5.60;99.90
20418;DHT22;10368;51.436;6.774;2022-12-07T16:26:21;5.60;99.90
20418;DHT22;10368;51.436;6.774;2022-12-07T16:28:50;5.60;99.90
20418;DHT22;10368;51.436;6.774;2022-12-07T16:31:21;5.60;99.90
20418;DHT22;10368;51.436;6.774;2022-12-07T16:33:49;5.50;99.90
20418;DHT22;10368;51.436;6.774;2022-12-07T16:36:17;5.60;99.90
20418;DHT22;10368;51.436;6.774;2022-12-07T16:39:10;5.60;99.90
20418;DHT22;10368;51.436;6.774;2022-12-07T16:41:40;5.60;99.90
20418;DHT22;10368;51.436;6.774;2022-12-07T16:44:09;5.50;99.90
20418;DHT22;10368;51.436;6.774;2022-12-07T16:46:36;5.60;99.90
20418;DHT22;10368;51.436;6.774;2022-12-07T16:49:04;5.60;99.90
20418;DHT22;10368;51.436;6.774;2022-12-07T16:51:31;5.50;99.90
20418;DHT22;10368;51.436;6.774;2022-12-07T16:53:58;5.60;99.90
20418;DHT22;10368;51.436;6.774;2022-12-07T16:56:25;5.50;99.90
20418;DHT22;10368;51.436;6.774;2022-12-07T16:58:53;5.50;99.90
20418;DHT22;10368;51.436;6.774;2022-12-07T17:01:22;5.50;99.90
20418;DHT22;10368;51.436;6.774;2022-12-07T17:03:52;5.50;99.90
20418;DHT22;10368;51.436;6.774;2022-12-07T17:06:25;5.50;99.90
20418;DHT22;10368;51.436;6.774;2022-12-07T17:08:53;5.60;99.90
20418;DHT22;10368;51.436;6.774;2022-12-07T17:11:27;5.50;99.90
20418;DHT22;10368;51.436;6.774;2022-12-07T17:13:54;5.50;99.90
20418;DHT22;10368;51.436;6.774;2022-12-07T17:16:40;5.50;99.90
20418;DHT22;10368;51.436;6.774;2022-12-07T17:19:09;5.50;99.90
20418;DHT22;10368;51.436;6.774;2022-12-07T17:21:37;5.40;99.90
20418;DHT22;10368;51.436;6.774;2022-12-07T17:24:07;5.50;99.90
20418;DHT22;10368;51.436;6.774;2022-12-07T17:26:35;5.40;99.90
20418;DHT22;10368;51.436;6.774;2022-12-07T17:29:04;5.40;99.90
20418;DHT22;10368;51.436;6.774;2022-12-07T17:31:32;5.40;99.90
20418;DHT22;10368;51.436;6.774;2022-12-07T17:33:59;5.40;99.90
20418;DHT22;10368;51.436;6.774;2022-12-07T17:36:28;5.40;99.90
20418;DHT22;10368;51.436;6.774;2022-12-07T17:38:57;5.40;99.90
20418;DHT22;10368;51.436;6.774;2022-12-07T17:41:26;5.40;99.90
20418;DHT22;10368;51.436;6.774;2022-12-07T17:44:14;5.40;99.90
20418;DHT22;10368;51.436;6.774;2022-12-07T17:46:42;5.40;99.90
20418;DHT22;10368;51.436;6.774;2022-12-07T17:49:09;5.40;99.90
20418;DHT22;10368;51.436;6.774;2022-12-07T17:51:36;5.40;99.90
20418;DHT22;10368;51.436;6.774;2022-12-07T17:54:22;5.30;99.90
20418;DHT22;10368;51.436;6.774;2022-12-07T17:56:52;5.40;99.90
20418;DHT22;10368;51.436;6.774;2022-12-07T17:59:21;5.30;99.90
20418;DHT22;10368;51.436;6.774;2022-12-07T18:01:48;5.30;99.90
20418;DHT22;10368;51.436;6.774;2022-12-07T18:04:15;5.20;99.90
20418;DHT22;10368;51.436;6.774;2022-12-07T18:06:42;5.30;99.90
20418;DHT22;10368;51.436;6.774;2022-12-07T18:09:17;5.30;99.90
20418;DHT22;10368;51.436;6.774;2022-12-07T18:11:47;5.30;99.90
20418;DHT22;10368;51.436;6.774;2022-12-07T18:14:14;5.30;99.90
20418;DHT22;10368;51.436;6.774;2022-12-07T18:16:42;5.30;99.90
20418;DHT22;10368;51.436;6.774;2022-12-07T18:19:10;5.30;99.90
20418;DHT22;10368;51.436;6.774;2022-12-07T18:21:40;5.20;99.90